Time;durP1;ratioP1;P1;durP2;ratioP2;P2;SDS_P1;SDS_P2;PMS_P1;PMS_P2;Temp;Humidity;BMP_temperature;BMP_pressure;BME280_temperature;BME280_humidity;BME280_pressure;Samples;Min_cycle;Max_cycle;Signal;HPM_P1;HPM_P2
2022/08/25 00:01:14;;;;;;;9.00;3.10;;;;;;;21.20;47.27;100534.87;1697539;82;20978;-72
2022/08/25 00:03:41;;;;;;;7.55;3.10;;;;;;;21.20;47.01;100530.84;1724496;81;21044;-72
2022/08/25 00:06:08;;;;;;;5.80;3.37;;;;;;;21.22;46.84;100530.64;1715363;80;20988;-73
2022/08/25 00:08:36;;;;;;;6.10;3.25;;;;;;;21.24;46.61;100535.34;1714790;81;21808;-72
2022/08/25 00:11:11;;;;;;;13.25;3.92;;;;;;;21.25;46.42;100539.70;1718919;81;20949;-72
2022/08/25 00:13:41;;;;;;;9.50;3.60;;;;;;;21.26;46.43;100539.53;1697055;82;21011;-73
2022/08/25 00:16:10;;;;;;;12.63;3.47;;;;;;;21.27;46.36;100541.20;1719277;81;21020;-73
2022/08/25 00:18:38;;;;;;;6.55;3.35;;;;;;;21.27;46.52;100539.02;1708242;82;21005;-73
2022/08/25 00:21:05;;;;;;;11.63;3.75;;;;;;;21.25;46.94;100535.67;1700326;82;22593;-73
2022/08/25 00:23:31;;;;;;;8.28;3.65;;;;;;;21.20;47.19;100541.58;1697941;82;20956;-72
2022/08/25 00:25:58;;;;;;;8.60;3.58;;;;;;;21.17;47.28;100541.13;1724866;81;21072;-73
2022/08/25 00:28:24;;;;;;;8.45;3.95;;;;;;;21.16;47.47;100544.33;1718603;81;21046;-72
2022/08/25 00:30:51;;;;;;;10.53;3.50;;;;;;;21.12;47.50;100537.64;1719485;81;21016;-73
2022/08/25 00:33:18;;;;;;;9.80;3.47;;;;;;;21.07;48.06;100537.39;1717195;81;21926;-73
2022/08/25 00:35:44;;;;;;;11.25;3.77;;;;;;;20.97;48.49;100530.95;1729405;81;21047;-72
2022/08/25 00:38:11;;;;;;;10.95;4.25;;;;;;;20.88;49.14;100531.23;1726280;81;21111;-72
2022/08/25 00:40:38;;;;;;;8.40;3.77;;;;;;;20.75;49.47;100529.17;1705930;82;21019;-73
2022/08/25 00:43:05;;;;;;;6.60;3.80;;;;;;;20.68;49.21;100530.95;1722591;81;21023;-73
2022/08/25 00:45:34;;;;;;;8.13;3.95;;;;;;;20.65;48.75;100533.47;1680138;83;21639;-72
2022/08/25 00:48:00;;;;;;;12.68;4.20;;;;;;;20.67;48.75;100539.51;1656754;83;21154;-72
2022/08/25 00:50:31;;;;;;;10.25;4.15;;;;;;;20.69;48.59;100541.49;1679752;84;21055;-73
2022/08/25 00:53:00;;;;;;;12.58;3.80;;;;;;;20.69;49.03;100537.47;1676941;84;21059;-72
2022/08/25 00:55:32;;;;;;;8.40;3.90;;;;;;;20.65;49.46;100536.66;1685449;84;21123;-72
2022/08/25 00:58:15;;;;;;;8.20;4.60;;;;;;;20.61;49.61;100534.86;1701853;83;22072;-73
2022/08/25 01:00:47;;;;;;;9.48;3.90;;;;;;;20.60;49.83;100534.54;1678643;84;20973;-72
2022/08/25 01:03:13;;;;;;;9.48;4.05;;;;;;;20.60;49.91;100530.52;1677032;84;20952;-72
2022/08/25 01:05:39;;;;;;;6.95;4.17;;;;;;;20.62;49.85;100526.30;1681633;83;21030;-73
2022/08/25 01:08:06;;;;;;;10.72;4.10;;;;;;;20.64;49.76;100526.94;1681414;84;21075;-72
2022/08/25 01:10:35;;;;;;;7.20;4.20;;;;;;;20.64;49.81;100524.26;1692610;83;21844;-73
2022/08/25 01:13:10;;;;;;;7.65;4.08;;;;;;;20.66;49.89;100524.42;1669545;84;21051;-72
2022/08/25 01:15:37;;;;;;;9.03;3.95;;;;;;;20.63;50.31;100520.74;1687929;83;21558;-72
2022/08/25 01:18:04;;;;;;;8.65;4.05;;;;;;;20.57;50.53;100516.13;1684087;83;21398;-74
2022/08/25 01:20:31;;;;;;;8.18;4.00;;;;;;;20.50;50.58;100523.23;1677222;84;21051;-72
2022/08/25 01:22:58;;;;;;;8.70;4.05;;;;;;;20.47;50.73;100519.59;1706816;82;21826;-73
2022/08/25 01:25:54;;;;;;;9.20;4.00;;;;;;;20.43;50.32;100519.61;1654953;85;21181;-73
2022/08/25 01:28:21;;;;;;;12.30;4.17;;;;;;;20.44;50.16;100514.56;1674040;84;20996;-72
2022/08/25 01:30:48;;;;;;;8.03;4.28;;;;;;;20.43;50.02;100519.09;1674288;85;21043;-72
2022/08/25 01:33:16;;;;;;;8.88;4.28;;;;;;;20.44;50.01;100514.05;1683450;84;20957;-72
2022/08/25 01:35:42;;;;;;;9.25;4.25;;;;;;;20.44;49.92;100519.42;1681582;85;21808;-72
2022/08/25 01:38:09;;;;;;;9.68;4.20;;;;;;;20.44;50.09;100512.71;1669872;84;20955;-72
2022/08/25 01:40:36;;;;;;;6.58;4.20;;;;;;;20.43;50.15;100518.27;1684186;83;21012;-73
2022/08/25 01:43:26;;;;;;;8.55;4.28;;;;;;;20.41;50.15;100519.77;1629358;86;21008;-73
2022/08/25 01:45:53;;;;;;;8.90;4.70;;;;;;;20.38;50.55;100516.11;1711335;82;20948;-72
2022/08/25 01:48:19;;;;;;;6.95;4.50;;;;;;;20.36;50.58;100526.16;1717071;83;21901;-73
2022/08/25 01:50:46;;;;;;;10.55;4.70;;;;;;;20.36;50.75;100525.33;1694181;83;21319;-73
2022/08/25 01:53:24;;;;;;;9.58;5.08;;;;;;;20.34;50.92;100530.05;1692138;82;21021;-73
2022/08/25 01:55:52;;;;;;;9.80;4.47;;;;;;;20.34;51.03;100531.39;1732809;82;21095;-72
2022/08/25 01:58:31;;;;;;;7.70;4.67;;;;;;;20.33;50.94;100523.86;1688187;83;21020;-71
2022/08/25 02:01:00;;;;;;;13.68;4.85;;;;;;;20.35;50.90;100521.81;1686381;83;21963;-73
2022/08/25 02:03:27;;;;;;;10.48;4.78;;;;;;;20.36;50.99;100520.80;1692822;84;21088;-72
2022/08/25 02:05:54;;;;;;;7.53;4.78;;;;;;;20.36;51.12;100515.44;1687854;84;20976;-71
2022/08/25 02:08:22;;;;;;;8.08;4.67;;;;;;;20.37;51.24;100527.03;1666179;84;21009;-72
2022/08/25 02:10:51;;;;;;;11.57;5.12;;;;;;;20.34;51.32;100525.52;1726769;82;21032;-72
2022/08/25 02:13:17;;;;;;;8.63;5.05;;;;;;;20.29;51.44;100524.73;1674763;83;21827;-72
2022/08/25 02:15:48;;;;;;;7.75;4.47;;;;;;;20.28;51.59;100526.27;1683622;83;20916;-72
2022/08/25 02:18:16;;;;;;;7.70;5.05;;;;;;;20.24;51.70;100524.94;1699293;82;21009;-72
2022/08/25 02:20:42;;;;;;;8.35;4.95;;;;;;;20.20;51.98;100522.30;1710905;83;20965;-72
2022/08/25 02:23:09;;;;;;;7.85;4.90;;;;;;;20.17;51.92;100525.33;1707680;82;21022;-73
2022/08/25 02:25:38;;;;;;;7.95;4.85;;;;;;;20.13;51.81;100528.05;1702080;82;21934;-72
2022/08/25 02:28:07;;;;;;;7.08;4.67;;;;;;;20.15;51.63;100529.53;1707898;82;21020;-72
2022/08/25 02:30:37;;;;;;;8.68;4.70;;;;;;;20.17;51.70;100523.51;1701737;82;21451;-72
2022/08/25 02:33:04;;;;;;;9.10;5.05;;;;;;;20.16;51.74;100519.64;1690055;84;21001;-72
2022/08/25 02:35:31;;;;;;;9.05;5.05;;;;;;;20.16;51.60;100516.95;1692111;84;21075;-73
2022/08/25 02:37:57;;;;;;;8.53;4.90;;;;;;;20.17;51.52;100518.14;1688577;83;21935;-72
2022/08/25 02:40:24;;;;;;;8.40;5.17;;;;;;;20.20;51.31;100516.44;1701436;83;21028;-72
2022/08/25 02:42:50;;;;;;;9.00;5.22;;;;;;;20.22;51.25;100511.72;1713129;82;21060;-72
2022/08/25 02:45:17;;;;;;;7.37;4.78;;;;;;;20.23;51.03;100513.89;1707795;82;21071;-72
2022/08/25 02:47:44;;;;;;;16.85;5.55;;;;;;;20.22;50.98;100520.27;1705417;82;20981;-72
2022/08/25 02:50:11;;;;;;;7.65;5.00;;;;;;;20.20;51.18;100515.09;1743575;81;21886;-72
2022/08/25 02:52:37;;;;;;;8.75;4.58;;;;;;;20.13;51.56;100510.63;1700872;83;21083;-73
2022/08/25 02:55:05;;;;;;;8.75;5.10;;;;;;;20.05;51.86;100513.37;1707138;83;21064;-72
2022/08/25 02:57:32;;;;;;;11.22;5.20;;;;;;;19.99;51.90;100510.41;1681866;83;21391;-73
2022/08/25 02:59:59;;;;;;;9.08;4.92;;;;;;;19.97;51.88;100515.09;1700543;83;21467;-72
2022/08/25 03:02:26;;;;;;;6.65;4.87;;;;;;;19.96;51.72;100516.61;1712207;83;21775;-72
2022/08/25 03:04:53;;;;;;;14.90;5.47;;;;;;;19.96;51.49;100516.61;1707867;83;21045;-72
2022/08/25 03:07:20;;;;;;;11.15;5.05;;;;;;;19.96;51.59;100519.30;1706757;82;21522;-72
2022/08/25 03:09:47;;;;;;;11.20;5.22;;;;;;;19.93;51.82;100514.30;1706288;83;21451;-73
2022/08/25 03:12:15;;;;;;;8.48;5.15;;;;;;;19.88;52.02;100524.23;1709672;82;20958;-73
2022/08/25 03:14:42;;;;;;;9.53;4.83;;;;;;;19.84;51.94;100528.27;1711765;82;22353;-72
2022/08/25 03:17:09;;;;;;;11.05;5.30;;;;;;;19.82;51.70;100530.80;1717423;82;21020;-72
2022/08/25 03:19:36;;;;;;;8.05;5.20;;;;;;;19.83;51.47;100527.94;1703916;82;20977;-72
2022/08/25 03:22:02;;;;;;;9.33;5.00;;;;;;;19.86;51.36;100532.10;1679704;83;21044;-74
2022/08/25 03:24:28;;;;;;;8.73;4.95;;;;;;;19.87;51.36;100535.94;1689766;83;21513;-72
2022/08/25 03:26:55;;;;;;;9.75;5.25;;;;;;;19.90;51.45;100535.61;1691759;83;21813;-72
2022/08/25 03:29:24;;;;;;;9.05;5.28;;;;;;;19.90;51.59;100528.08;1695637;83;21476;-72
2022/08/25 03:31:53;;;;;;;10.23;5.47;;;;;;;19.90;51.73;100538.80;1707104;83;21060;-72
2022/08/25 03:34:21;;;;;;;8.83;4.80;;;;;;;19.92;51.86;100535.42;1707043;83;21032;-72
2022/08/25 03:36:50;;;;;;;9.88;5.05;;;;;;;19.89;51.96;100535.28;1689892;83;21630;-73
2022/08/25 03:39:18;;;;;;;12.18;5.45;;;;;;;19.91;52.05;100532.42;1710756;83;21863;-73
2022/08/25 03:41:45;;;;;;;7.58;5.05;;;;;;;19.91;52.17;100527.89;1689748;83;20961;-73
2022/08/25 03:44:12;;;;;;;9.20;5.35;;;;;;;19.93;51.89;100531.73;1693652;83;21025;-73
2022/08/25 03:46:44;;;;;;;10.75;5.12;;;;;;;19.95;51.80;100529.19;1681491;83;21017;-73
2022/08/25 03:49:15;;;;;;;10.48;5.28;;;;;;;20.00;51.88;100534.03;1679903;83;21024;-73
2022/08/25 03:51:47;;;;;;;7.00;4.92;;;;;;;20.04;52.23;100529.13;1664468;84;22265;-73
2022/08/25 03:54:17;;;;;;;11.78;5.12;;;;;;;20.06;52.53;100525.76;1691224;83;21582;-74
2022/08/25 03:56:44;;;;;;;10.93;5.20;;;;;;;20.09;52.75;100529.44;1715006;83;20981;-73
2022/08/25 03:59:11;;;;;;;9.80;5.10;;;;;;;20.15;52.88;100523.34;1698412;83;21067;-73
2022/08/25 04:01:40;;;;;;;12.80;5.22;;;;;;;20.19;52.94;100525.50;1695644;83;21774;-72
2022/08/25 04:04:08;;;;;;;14.43;5.15;;;;;;;20.23;53.13;100526.79;1709629;83;21791;-73
2022/08/25 04:06:34;;;;;;;10.60;5.45;;;;;;;20.26;53.33;100524.25;1697118;82;21064;-72
2022/08/25 04:09:01;;;;;;;13.20;5.90;;;;;;;20.29;53.42;100523.91;1704888;82;21015;-73
2022/08/25 04:11:27;;;;;;;11.70;5.33;;;;;;;20.34;53.32;100522.84;1680049;85;21104;-72
2022/08/25 04:13:56;;;;;;;9.13;5.08;;;;;;;20.39;53.19;100523.14;1692062;83;21012;-72
2022/08/25 04:16:26;;;;;;;10.80;5.67;;;;;;;20.43;53.08;100523.12;1706451;83;22232;-72
2022/08/25 04:18:54;;;;;;;11.15;5.62;;;;;;;20.48;53.02;100518.05;1685309;83;20928;-73
2022/08/25 04:21:20;;;;;;;9.90;4.97;;;;;;;20.54;52.97;100517.30;1687046;83;21053;-72
2022/08/25 04:23:48;;;;;;;10.72;5.25;;;;;;;20.59;53.01;100518.11;1701410;83;20995;-72
2022/08/25 04:26:28;;;;;;;13.58;5.70;;;;;;;20.63;52.86;100520.74;1691536;84;20944;-72
2022/08/25 04:28:56;;;;;;;12.13;5.33;;;;;;;20.66;52.58;100518.22;1696749;82;21805;-72
2022/08/25 04:31:23;;;;;;;6.70;4.97;;;;;;;20.70;51.79;100514.14;1683507;84;21016;-72
2022/08/25 04:33:49;;;;;;;10.40;4.87;;;;;;;20.74;51.66;100514.92;1687044;83;21012;-72
2022/08/25 04:36:17;;;;;;;9.18;5.20;;;;;;;20.79;51.78;100509.02;1698988;83;20948;-71
2022/08/25 04:38:44;;;;;;;7.12;5.25;;;;;;;20.82;51.92;100513.48;1711589;83;20988;-72
2022/08/25 04:41:13;;;;;;;11.00;5.35;;;;;;;20.87;51.90;100514.30;1691505;82;22365;-71
2022/08/25 04:43:40;;;;;;;11.50;5.20;;;;;;;20.91;51.78;100510.20;1691993;84;21060;-72
2022/08/25 04:46:13;;;;;;;10.13;5.17;;;;;;;20.94;51.58;100508.52;1695825;82;20944;-73
2022/08/25 04:48:40;;;;;;;9.13;4.92;;;;;;;20.99;51.54;100508.77;1694165;83;21010;-70
2022/08/25 04:51:10;;;;;;;8.20;5.35;;;;;;;21.04;51.36;100509.57;1715808;83;20960;-73
2022/08/25 04:53:37;;;;;;;12.13;5.17;;;;;;;21.09;51.16;100501.77;1664365;84;21865;-72
2022/08/25 04:56:14;;;;;;;11.10;5.40;;;;;;;21.15;51.15;100504.55;1675660;83;21035;-72
2022/08/25 04:58:41;;;;;;;8.75;4.97;;;;;;;21.20;51.13;100509.34;1637876;85;21089;-71
2022/08/25 05:01:10;;;;;;;22.87;20.17;;;;;;;21.27;51.09;100504.93;1687452;83;21049;-72
2022/08/25 05:03:37;;;;;;;21.42;18.65;;;;;;;21.33;51.23;100505.53;1698504;83;21085;-70
2022/08/25 05:06:04;;;;;;;40.03;35.80;;;;;;;21.41;51.31;100503.22;1692974;83;21830;-72
2022/08/25 05:08:33;;;;;;;19.60;13.95;;;;;;;21.50;51.36;100501.25;1666870;84;21072;-71
2022/08/25 05:11:05;;;;;;;140.90;127.17;;;;;;;21.58;51.40;100499.28;1686543;84;21012;-71
2022/08/25 05:13:33;;;;;;;18.25;15.05;;;;;;;21.64;51.40;100497.70;1673359;83;21544;-71
2022/08/25 05:16:01;;;;;;;10.70;6.90;;;;;;;21.73;51.26;100493.04;1678028;83;21017;-72
2022/08/25 05:18:30;;;;;;;8.80;6.05;;;;;;;21.78;50.73;100498.14;1677185;83;21810;-71
2022/08/25 05:21:02;;;;;;;11.80;5.62;;;;;;;21.83;50.64;100494.90;1676910;84;21159;-72
2022/08/25 05:23:30;;;;;;;8.98;5.42;;;;;;;21.88;50.54;100493.28;1693445;83;21064;-72
2022/08/25 05:26:07;;;;;;;9.50;5.40;;;;;;;21.95;50.01;100498.73;1701198;82;20982;-73
2022/08/25 05:28:33;;;;;;;9.08;5.37;;;;;;;21.99;49.84;100490.06;1691533;83;21358;-71
2022/08/25 05:31:01;;;;;;;9.75;5.12;;;;;;;22.07;49.68;100489.14;1708404;83;22486;-73
2022/08/25 05:33:28;;;;;;;11.63;5.10;;;;;;;22.13;49.68;100490.23;1692596;83;20940;-72
2022/08/25 05:35:55;;;;;;;14.38;5.60;;;;;;;22.20;49.46;100497.34;1705943;82;21484;-71
2022/08/25 05:38:21;;;;;;;9.83;5.15;;;;;;;22.27;49.57;100502.23;1685062;83;21392;-71
2022/08/25 05:40:58;;;;;;;12.03;5.83;;;;;;;22.36;49.39;100502.10;1697810;83;21582;-71
2022/08/25 05:43:25;;;;;;;13.98;8.30;;;;;;;22.45;49.24;100495.55;1651234;83;22485;-71
2022/08/25 05:45:55;;;;;;;10.48;6.05;;;;;;;22.51;49.19;100495.60;1681055;83;21064;-73
2022/08/25 05:48:22;;;;;;;10.10;5.50;;;;;;;22.61;48.96;100497.11;1715822;82;21536;-71
2022/08/25 05:50:55;;;;;;;10.05;5.30;;;;;;;22.67;49.05;100494.45;1712024;82;21041;-71
2022/08/25 05:53:21;;;;;;;10.03;5.33;;;;;;;22.77;48.65;100495.44;1721781;82;21107;-72
2022/08/25 05:55:49;;;;;;;8.68;5.08;;;;;;;22.79;48.24;100492.88;1716186;82;21891;-71
2022/08/25 05:58:15;;;;;;;10.63;5.20;;;;;;;22.82;47.97;100493.83;1698216;82;20964;-71
2022/08/25 06:00:42;;;;;;;11.97;5.50;;;;;;;22.84;48.00;100494.48;1707267;82;21492;-72
2022/08/25 06:03:08;;;;;;;11.40;5.80;;;;;;;22.91;47.86;100493.18;1704390;83;21045;-73
2022/08/25 06:05:36;;;;;;;8.83;5.22;;;;;;;22.97;47.94;100495.09;1708088;82;21655;-73
2022/08/25 06:08:03;;;;;;;13.00;5.08;;;;;;;23.04;48.03;100498.63;1713399;82;22330;-72
2022/08/25 06:10:29;;;;;;;8.90;5.55;;;;;;;23.12;48.04;100490.38;1707033;82;20988;-75
2022/08/25 06:12:56;;;;;;;10.20;5.17;;;;;;;23.18;47.04;100490.09;1707453;84;21092;-73
2022/08/25 06:15:23;;;;;;;10.65;5.37;;;;;;;23.23;46.84;100497.05;1707490;82;20980;-72
2022/08/25 06:17:50;;;;;;;8.80;5.12;;;;;;;23.26;46.30;100492.62;1691133;83;21019;-73
2022/08/25 06:20:21;;;;;;;10.23;5.22;;;;;;;23.28;46.53;100496.46;1690600;83;21805;-72
2022/08/25 06:22:48;;;;;;;17.98;12.05;;;;;;;23.35;46.64;100484.64;1680351;83;21028;-72
2022/08/25 06:25:18;;;;;;;12.10;8.53;;;;;;;23.47;46.86;100491.65;1705252;82;21013;-73
2022/08/25 06:27:45;;;;;;;31.52;27.75;;;;;;;23.58;47.02;100493.75;1711606;82;20942;-74
2022/08/25 06:30:15;;;;;;;11.12;6.80;;;;;;;23.70;46.66;100494.84;1719748;82;21001;-75
2022/08/25 06:32:42;;;;;;;12.65;5.58;;;;;;;23.76;45.77;100493.20;1710374;82;21826;-73
2022/08/25 06:35:13;;;;;;;15.28;5.22;;;;;;;23.80;45.80;100494.96;1714375;82;21099;-76
2022/08/25 06:37:41;;;;;;;8.95;5.03;;;;;;;23.84;45.78;100493.02;1708747;82;21001;-76
2022/08/25 06:40:08;;;;;;;9.28;5.50;;;;;;;23.94;45.97;100488.56;1721409;82;21127;-70
2022/08/25 06:42:36;;;;;;;10.63;5.53;;;;;;;24.06;46.44;100498.22;1698640;83;20944;-70
2022/08/25 06:45:03;;;;;;;9.13;5.50;;;;;;;24.14;46.05;100492.09;1696914;83;22256;-73
2022/08/25 06:47:30;;;;;;;11.63;5.15;;;;;;;24.26;45.92;100494.99;1709450;82;21012;-73
2022/08/25 06:49:57;;;;;;;8.88;5.12;;;;;;;24.38;45.88;100489.82;1722664;81;21032;-73
2022/08/25 06:52:24;;;;;;;8.28;4.90;;;;;;;24.50;45.33;100489.48;1724184;81;21437;-72
2022/08/25 06:54:51;;;;;;;9.80;5.05;;;;;;;24.59;44.33;100492.28;1730233;81;21528;-72
2022/08/25 06:57:17;;;;;;;12.30;5.10;;;;;;;24.61;43.60;100489.36;1729762;81;21930;-73
2022/08/25 06:59:44;;;;;;;18.30;13.55;;;;;;;24.64;43.57;100487.61;1722596;81;21038;-70
2022/08/25 07:02:11;;;;;;;31.95;28.15;;;;;;;24.72;43.85;100485.52;1721365;81;21016;-71
2022/08/25 07:04:37;;;;;;;12.37;8.43;;;;;;;24.83;44.07;100500.24;1723693;81;21005;-72
2022/08/25 07:07:04;;;;;;;12.25;6.35;;;;;;;24.91;42.53;100502.72;1722052;81;21019;-70
2022/08/25 07:09:31;;;;;;;11.25;5.60;;;;;;;24.93;42.19;100496.58;1731173;81;21769;-71
2022/08/25 07:12:01;;;;;;;16.70;5.10;;;;;;;24.97;42.48;100509.95;1721048;81;21042;-72
2022/08/25 07:14:27;;;;;;;12.10;4.97;;;;;;;25.04;41.01;100503.22;1730695;81;21573;-71
2022/08/25 07:16:54;;;;;;;7.92;4.67;;;;;;;25.07;41.29;100500.91;1733967;81;21031;-71
2022/08/25 07:19:21;;;;;;;12.28;5.10;;;;;;;25.17;41.00;100509.09;1729600;81;21004;-73
2022/08/25 07:21:50;;;;;;;13.60;5.05;;;;;;;25.27;40.99;100504.05;1724465;81;22243;-71
2022/08/25 07:24:17;;;;;;;12.28;4.97;;;;;;;25.38;40.83;100492.56;1731699;81;20952;-71
2022/08/25 07:26:45;;;;;;;9.85;4.40;;;;;;;25.51;40.37;100493.03;1725523;81;20968;-71
2022/08/25 07:29:16;;;;;;;13.60;4.87;;;;;;;25.61;40.29;100497.45;1693559;83;21032;-70
2022/08/25 07:31:42;;;;;;;13.85;4.72;;;;;;;25.71;39.76;100491.59;1705983;83;21529;-70
2022/08/25 07:36:54;;;;;;;7.12;4.42;;;;;;;25.88;40.07;100486.79;1695380;83;21012;-70
2022/08/25 07:39:21;;;;;;;15.05;5.10;;;;;;;26.04;39.91;100485.41;1724048;81;20969;-70
2022/08/25 07:41:48;;;;;;;10.72;4.95;;;;;;;26.15;39.76;100479.80;1748953;81;21035;-70
2022/08/25 07:44:14;;;;;;;13.62;8.33;;;;;;;26.24;38.61;100475.23;1716861;81;20964;-70
2022/08/25 07:46:41;;;;;;;31.15;26.42;;;;;;;26.32;38.63;100482.78;1726617;81;21829;-69
2022/08/25 07:49:08;;;;;;;15.05;6.28;;;;;;;26.43;38.68;100475.30;1721090;81;21459;-74
2022/08/25 07:51:34;;;;;;;13.05;5.03;;;;;;;26.52;38.79;100469.90;1722236;81;21603;-70
2022/08/25 07:54:01;;;;;;;12.10;4.50;;;;;;;26.63;38.38;100469.16;1723906;81;21056;-71
2022/08/25 07:56:28;;;;;;;15.50;4.90;;;;;;;26.75;38.08;100467.91;1721478;81;21020;-72
2022/08/25 07:58:55;;;;;;;10.85;4.70;;;;;;;26.88;38.71;100469.62;1726383;80;21774;-72
2022/08/25 08:01:23;;;;;;;12.45;4.62;;;;;;;27.01;37.59;100464.86;1726081;81;21036;-71
2022/08/25 08:03:49;;;;;;;11.50;4.72;;;;;;;27.06;36.97;100465.05;1695390;84;21059;-71
2022/08/25 08:06:18;;;;;;;14.35;4.62;;;;;;;27.10;37.67;100464.06;1696389;83;20951;-71
2022/08/25 08:08:48;;;;;;;10.25;4.65;;;;;;;27.18;37.29;100462.39;1696869;83;20959;-71
2022/08/25 08:11:29;;;;;;;15.75;4.90;;;;;;;27.26;37.31;100460.73;1696786;84;22493;-71
2022/08/25 08:13:56;;;;;;;19.92;4.72;;;;;;;27.37;37.47;100463.19;1696981;84;21043;-71
2022/08/25 08:16:25;;;;;;;14.07;5.15;;;;;;;27.48;37.43;100454.26;1696746;83;21362;-72
2022/08/25 08:18:52;;;;;;;11.93;4.95;;;;;;;27.60;37.75;100458.36;1695400;84;21015;-71
2022/08/25 08:21:25;;;;;;;19.98;4.87;;;;;;;27.73;37.09;100452.78;1687571;84;21351;-71
2022/08/25 08:23:52;;;;;;;21.93;5.28;;;;;;;27.82;36.78;100456.81;1685303;84;21978;-70
2022/08/25 08:26:18;;;;;;;14.90;4.92;;;;;;;27.92;36.33;100458.95;1681725;85;21073;-71
2022/08/25 08:28:45;;;;;;;25.60;5.40;;;;;;;28.00;36.91;100457.27;1681817;84;20973;-70
2022/08/25 08:31:11;;;;;;;19.45;5.00;;;;;;;28.06;36.14;100456.84;1682124;85;21041;-71
2022/08/25 08:33:38;;;;;;;14.90;5.40;;;;;;;28.11;36.57;100454.27;1681896;85;21064;-71
2022/08/25 08:36:08;;;;;;;17.52;5.17;;;;;;;28.22;36.72;100448.00;1681786;85;22648;-70
2022/08/25 08:38:34;;;;;;;13.32;4.78;;;;;;;28.33;36.21;100452.64;1682774;85;20889;-71
2022/08/25 08:44:43;;;;;;;18.90;5.03;;;;;;;28.49;35.00;100438.88;1687078;85;21111;-71
2022/08/25 08:47:51;;;;;;;16.97;5.42;;;;;;;28.49;34.74;100432.09;1685804;84;21059;-72
2022/08/25 08:50:59;;;;;;;22.85;5.47;;;;;;;28.57;35.31;100427.64;1678796;85;21940;-71
2022/08/25 08:53:57;;;;;;;17.92;5.37;;;;;;;28.78;35.22;100424.83;1678659;85;21059;-71
2022/08/25 08:56:28;;;;;;;20.10;4.70;;;;;;;28.96;35.00;100419.78;1678076;85;21028;-71
2022/08/25 08:59:05;;;;;;;21.02;5.30;;;;;;;29.13;34.80;100419.28;1678656;85;20985;-71
2022/08/25 09:01:40;;;;;;;14.03;4.78;;;;;;;29.25;34.79;100407.84;1662088;85;21032;-71
2022/08/25 09:04:43;;;;;;;17.00;5.45;;;;;;;29.37;34.67;100414.58;1668452;84;22483;-74
2022/08/25 09:07:17;;;;;;;21.73;5.40;;;;;;;29.45;34.34;100409.28;1678321;85;21070;-71
2022/08/25 09:09:44;;;;;;;16.62;5.05;;;;;;;29.55;34.10;100408.95;1669632;84;21008;-71
2022/08/25 09:12:32;;;;;;;18.45;5.42;;;;;;;29.68;34.14;100406.43;1666919;85;20996;-72
2022/08/25 09:15:10;;;;;;;14.85;5.05;;;;;;;29.81;34.23;100407.99;1678697;85;21055;-72
2022/08/25 09:18:07;;;;;;;20.37;5.50;;;;;;;29.96;33.50;100407.42;1670245;84;22491;-71
2022/08/25 09:20:54;;;;;;;12.70;4.90;;;;;;;30.08;33.59;100397.28;1678900;85;20965;-71
2022/08/25 09:23:41;;;;;;;11.08;4.05;;;;;;;30.22;34.54;100399.96;1666696;85;21488;-71
2022/08/25 09:26:16;;;;;;;15.05;5.28;;;;;;;30.38;33.72;100394.17;1678851;85;21025;-71
2022/08/25 09:28:54;;;;;;;22.85;4.85;;;;;;;30.43;32.82;100387.44;1678534;84;22131;-71
2022/08/25 09:31:25;;;;;;;17.00;5.10;;;;;;;30.52;33.24;100391.91;1670116;85;21811;-72
2022/08/25 09:33:55;;;;;;;20.85;4.80;;;;;;;30.52;33.24;100391.91;1666697;85;21011;-71
2022/08/25 09:36:23;;;;;;;15.80;5.30;;;;;;;30.63;32.45;100386.33;1700427;84;21020;-70
2022/08/25 09:38:49;;;;;;;14.80;4.65;;;;;;;30.75;32.83;100387.59;1703041;84;21070;-71
2022/08/25 09:41:18;;;;;;;12.88;4.80;;;;;;;30.91;32.39;100386.70;1703496;84;21063;-71
2022/08/25 09:43:52;;;;;;;17.62;4.70;;;;;;;31.08;31.94;100392.07;1661395;85;21904;-71
2022/08/25 09:46:27;;;;;;;20.45;4.75;;;;;;;31.23;31.63;100393.61;1667521;84;21047;-73
2022/08/25 09:48:58;;;;;;;12.88;4.40;;;;;;;31.40;31.77;100394.05;1719313;82;21363;-71
2022/08/25 09:51:31;;;;;;;11.15;4.15;;;;;;;31.53;30.51;100382.69;1730482;82;20956;-71
2022/08/25 09:54:19;;;;;;;17.37;4.55;;;;;;;31.65;30.07;100378.41;1733307;82;21375;-72
2022/08/25 09:56:59;;;;;;;9.98;4.10;;;;;;;31.71;29.84;100384.20;1733256;82;21933;-71
2022/08/25 09:59:34;;;;;;;11.22;3.95;;;;;;;31.81;30.35;100378.85;1733493;82;21004;-71
2022/08/25 10:02:04;;;;;;;18.32;4.05;;;;;;;31.98;30.12;100375.43;1704871;82;21020;-71
2022/08/25 10:04:35;;;;;;;13.15;3.50;;;;;;;32.18;30.11;100373.36;1698077;84;21016;-72
2022/08/25 10:07:07;;;;;;;16.40;3.72;;;;;;;32.38;28.53;100368.03;1697368;84;21060;-71
2022/08/25 10:09:40;;;;;;;15.08;3.77;;;;;;;32.50;29.23;100366.44;1695830;84;21794;-72
2022/08/25 10:12:26;;;;;;;14.75;3.95;;;;;;;32.64;28.83;100366.23;1697877;84;20912;-72
2022/08/25 10:14:53;;;;;;;17.10;4.45;;;;;;;32.69;27.60;100370.89;1697479;84;21057;-71
2022/08/25 10:17:31;;;;;;;12.20;3.75;;;;;;;32.64;28.43;100364.05;1697856;84;21031;-72
2022/08/25 10:20:21;;;;;;;12.93;3.15;;;;;;;32.72;28.15;100362.17;1697960;84;21514;-72
2022/08/25 10:22:48;;;;;;;22.20;3.72;;;;;;;32.83;28.32;100363.88;1669653;86;21956;-72
2022/08/25 10:25:19;;;;;;;18.62;3.52;;;;;;;33.07;28.27;100364.73;1670248;86;20980;-71
2022/08/25 10:27:57;;;;;;;14.38;3.45;;;;;;;33.25;28.46;100364.22;1670260;84;21450;-71
2022/08/25 10:30:30;;;;;;;16.30;3.47;;;;;;;33.40;26.55;100362.09;1675343;84;21000;-73
2022/08/25 10:33:18;;;;;;;;;;;;;;;33.34;26.29;100357.66;1665847;84;21009;-72
2022/08/25 10:36:05;;;;;;;13.53;3.10;;;;;;;33.22;27.10;100366.14;1704742;83;21840;-71
2022/08/25 10:38:38;;;;;;;12.25;3.08;;;;;;;33.27;26.18;100357.92;1715492;82;21048;-72
2022/08/25 10:41:48;;;;;;;88.60;5.33;;;;;;;33.35;25.74;100352.45;1711732;82;20977;-72
2022/08/25 10:47:35;;;;;;;15.72;3.30;;;;;;;33.45;25.94;100349.75;1725560;82;21064;-71
2022/08/25 10:50:25;;;;;;;9.90;2.90;;;;;;;33.47;25.22;100348.38;1743751;82;21874;-72
2022/08/25 10:52:57;;;;;;;9.70;2.80;;;;;;;33.54;24.78;100346.19;1712345;82;21030;-71
2022/08/25 10:55:38;;;;;;;9.30;2.83;;;;;;;33.53;25.08;100334.97;1708787;83;21443;-72
2022/08/25 10:58:22;;;;;;;11.00;2.92;;;;;;;33.60;25.11;100334.70;1705362;82;20965;-73
2022/08/25 11:01:06;;;;;;;9.23;2.70;;;;;;;33.71;24.80;100335.50;1703523;83;21052;-72
2022/08/25 11:04:01;;;;;;;9.75;2.70;;;;;;;33.79;24.52;100330.29;1716184;82;21833;-72
2022/08/25 11:06:53;;;;;;;7.87;2.70;;;;;;;33.88;24.52;100331.13;1745135;81;20925;-73
2022/08/25 11:09:25;;;;;;;7.53;2.30;;;;;;;33.93;24.85;100323.70;1748979;82;20845;-72
2022/08/25 11:12:12;;;;;;;6.85;2.17;;;;;;;34.10;24.89;100320.65;1735159;82;20997;-72
2022/08/25 11:14:47;;;;;;;9.05;2.33;;;;;;;34.31;24.17;100324.13;1712418;82;21016;-70
2022/08/25 11:17:37;;;;;;;9.55;2.20;;;;;;;34.53;24.02;100315.00;1715901;82;21855;-69
2022/08/25 11:20:12;;;;;;;7.85;2.22;;;;;;;34.58;22.86;100315.55;1706964;82;20961;-72
2022/08/25 11:22:57;;;;;;;6.87;1.98;;;;;;;34.58;23.06;100313.62;1682442;83;21110;-77
2022/08/25 11:25:28;;;;;;;9.08;2.20;;;;;;;34.62;22.70;100310.56;1683187;83;21072;-74
2022/08/25 11:28:30;;;;;;;7.87;1.92;;;;;;;34.61;22.83;100309.48;1705337;82;21099;-74
2022/08/25 11:30:58;;;;;;;6.83;2.17;;;;;;;34.66;22.66;100306.17;1694384;83;21869;-74
2022/08/25 11:33:25;;;;;;;9.35;2.37;;;;;;;34.63;23.11;100298.48;1704672;82;21468;-76
2022/08/25 11:36:13;;;;;;;7.37;2.10;;;;;;;34.66;23.40;100306.17;1706052;82;20962;-72
2022/08/25 11:39:15;;;;;;;10.60;2.00;;;;;;;34.70;22.66;100303.67;1711221;82;21036;-73
2022/08/25 11:42:03;;;;;;;9.85;2.22;;;;;;;34.81;23.56;100298.94;1679353;85;21068;-72
2022/08/25 11:44:53;;;;;;;7.42;1.90;;;;;;;34.97;22.71;100300.52;1687292;84;21531;-77
2022/08/25 11:47:34;;;;;;;10.78;1.90;;;;;;;35.12;22.17;100299.56;1593509;85;21530;-71